Time;durP1;ratioP1;P1;durP2;ratioP2;P2;SDS_P1;SDS_P2;PMS_P1;PMS_P2;Temp;Humidity;BMP_temperature;BMP_pressure;BME280_temperature;BME280_humidity;BME280_pressure;Samples;Min_cycle;Max_cycle;Signal;HPM_P1;HPM_P2
2022/05/04 00:00:29;;;;;;;4.50;2.60;;;;;;;11.08;71.77;100532.53;5082634;28;20097;-83
2022/05/04 00:03:27;;;;;;;4.22;2.47;;;;;;;11.45;71.35;100576.25;5078017;28;20047;-82
2022/05/04 00:05:58;;;;;;;5.32;2.88;;;;;;;11.18;71.71;100536.00;5080415;28;20086;-86
2022/05/04 00:08:25;;;;;;;5.32;2.95;;;;;;;11.28;71.66;100536.88;5069414;28;20070;-81
2022/05/04 00:10:51;;;;;;;3.90;1.95;;;;;;;11.29;72.86;100571.03;5055897;28;20028;-81
2022/05/04 00:13:17;;;;;;;4.53;2.58;;;;;;;11.34;72.80;100564.03;5084893;28;20052;-81
2022/05/04 00:15:43;;;;;;;5.18;2.38;;;;;;;11.12;72.32;100525.50;5068453;28;20704;-81
2022/05/04 00:18:10;;;;;;;3.67;2.33;;;;;;;11.34;72.05;100563.16;5056210;28;20395;-82
2022/05/04 00:20:37;;;;;;;4.50;2.20;;;;;;;11.30;72.61;100559.63;5076290;28;20036;-81
2022/05/04 00:23:21;;;;;;;10.43;2.75;;;;;;;11.09;72.43;100528.13;5083332;28;20051;-82
2022/05/04 00:25:58;;;;;;;4.35;2.40;;;;;;;11.11;72.19;100524.63;5085197;28;20036;-81
2022/05/04 00:28:24;;;;;;;4.35;2.80;;;;;;;10.78;72.50;100534.25;5078243;28;20028;-82
2022/05/04 00:30:52;;;;;;;8.55;2.72;;;;;;;10.67;73.08;100527.25;5084260;28;20054;-81
2022/05/04 00:33:21;;;;;;;4.57;2.85;;;;;;;11.10;72.73;100562.28;5089349;28;20058;-81
2022/05/04 00:35:48;;;;;;;5.13;2.83;;;;;;;10.82;72.73;100534.28;5066439;28;20040;-83
2022/05/04 00:38:16;;;;;;;4.57;2.95;;;;;;;11.09;72.70;100551.78;5086629;28;20062;-81
2022/05/04 00:40:42;;;;;;;5.85;2.72;;;;;;;11.05;72.97;100571.03;5085149;28;20028;-82
2022/05/04 00:43:21;;;;;;;9.65;2.70;;;;;;;10.72;73.35;100517.63;5049120;28;20047;-81
2022/05/04 00:45:48;;;;;;;4.05;2.58;;;;;;;10.65;73.55;100549.97;5079946;28;20463;-82
2022/05/04 00:48:13;;;;;;;9.68;3.05;;;;;;;10.80;72.86;100530.78;5080166;28;20101;-82
2022/05/04 00:50:41;;;;;;;7.03;3.22;;;;;;;10.78;72.97;100533.38;5044883;28;20047;-84
2022/05/04 00:53:07;;;;;;;3.88;2.78;;;;;;;10.69;73.29;100549.97;5085130;28;20306;-82
2022/05/04 00:55:32;;;;;;;4.55;2.75;;;;;;;10.73;72.78;100528.13;5082148;28;20069;-81
2022/05/04 01:00:51;;;;;;;6.05;2.63;;;;;;;10.90;72.41;100540.38;5084838;28;20047;-81
2022/05/04 01:03:18;;;;;;;7.05;2.50;;;;;;;10.98;73.12;100557.91;5072368;28;20133;-81
2022/05/04 01:05:44;;;;;;;5.57;2.92;;;;;;;10.83;71.70;100523.75;5084505;28;20509;-82
2022/05/04 01:08:10;;;;;;;4.43;2.55;;;;;;;10.76;72.35;100527.25;5089173;28;20031;-82
2022/05/04 01:10:37;;;;;;;4.63;2.63;;;;;;;10.63;72.49;100544.75;5083944;28;20024;-82
2022/05/04 01:13:02;;;;;;;5.65;2.95;;;;;;;10.58;72.21;100549.06;5069859;28;20032;-84
2022/05/04 01:16:00;;;;;;;5.35;2.78;;;;;;;10.71;72.37;100543.00;5068765;28;20037;-82
2022/05/04 01:18:31;;;;;;;5.55;3.38;;;;;;;10.76;71.90;100508.88;5071016;28;20044;-83
2022/05/04 01:20:56;;;;;;;7.63;2.88;;;;;;;10.95;72.53;100543.88;5082643;28;20476;-83
2022/05/04 01:23:23;;;;;;;5.10;2.70;;;;;;;10.86;71.99;100551.75;5085114;28;20047;-81
2022/05/04 01:25:53;;;;;;;6.97;3.00;;;;;;;10.94;71.53;100526.41;5068114;28;20055;-80
2022/05/04 01:28:21;;;;;;;5.03;2.92;;;;;;;11.00;71.38;100547.38;5074896;28;20040;-81
2022/05/04 01:30:49;;;;;;;5.60;2.40;;;;;;;10.87;71.73;100533.38;5080536;28;20132;-81
2022/05/04 01:33:14;;;;;;;7.70;3.63;;;;;;;10.82;71.65;100529.91;5067678;28;20032;-82
2022/05/04 01:35:43;;;;;;;7.53;3.47;;;;;;;10.74;72.52;100532.47;5066249;28;20039;-81
2022/05/04 01:38:09;;;;;;;5.78;3.63;;;;;;;10.69;72.36;100544.72;5083128;28;20384;-82
2022/05/04 01:40:35;;;;;;;5.78;3.13;;;;;;;10.98;72.41;100557.03;5083906;28;20054;-82
2022/05/04 01:43:01;;;;;;;4.97;3.05;;;;;;;10.69;72.32;100510.63;5050788;28;20040;-83
2022/05/04 01:45:27;;;;;;;8.00;4.32;;;;;;;10.54;72.90;100518.47;5080226;28;20036;-81
2022/05/04 01:47:54;;;;;;;8.82;4.07;;;;;;;10.85;72.97;100566.63;5080701;28;20036;-82
2022/05/04 01:50:20;;;;;;;5.75;3.70;;;;;;;10.29;74.17;100563.00;5075949;28;20044;-86
2022/05/04 01:52:47;;;;;;;9.23;3.25;;;;;;;10.13;74.46;100517.44;5073063;28;20020;-82
2022/05/04 01:55:14;;;;;;;6.35;3.22;;;;;;;10.39;74.64;100547.28;5074729;28;20037;-82
2022/05/04 01:57:40;;;;;;;5.90;4.30;;;;;;;10.52;74.30;100549.09;5061602;28;20052;-81
2022/05/04 02:00:22;;;;;;;6.47;3.33;;;;;;;10.06;74.82;100517.44;5077753;28;20048;-83
2022/05/04 02:02:49;;;;;;;6.47;2.65;;;;;;;10.47;74.00;100525.47;5057885;28;20057;-82
2022/05/04 02:05:16;;;;;;;6.53;3.58;;;;;;;10.25;74.94;100519.22;5077373;28;20063;-82
2022/05/04 02:07:43;;;;;;;6.07;3.45;;;;;;;10.06;75.01;100546.25;5065980;28;20024;-81
2022/05/04 02:10:22;;;;;;;5.75;3.60;;;;;;;10.06;74.70;100522.66;5085429;28;20040;-81
2022/05/04 02:12:49;;;;;;;5.25;3.35;;;;;;;10.15;75.12;100557.66;5075497;28;20062;-87
2022/05/04 02:15:17;;;;;;;6.22;3.70;;;;;;;10.39;74.52;100547.28;5057601;28;20075;-80
2022/05/04 02:18:25;;;;;;;7.47;4.35;;;;;;;10.33;74.82;100508.81;5077356;28;20645;-80
2022/05/04 02:20:51;;;;;;;8.38;3.90;;;;;;;10.25;74.96;100540.22;5083483;28;20039;-84
2022/05/04 02:23:17;;;;;;;6.40;4.10;;;;;;;10.05;75.23;100520.94;5084820;28;20052;-83
2022/05/04 02:25:53;;;;;;;6.20;3.92;;;;;;;10.10;76.29;100562.00;5059037;28;20484;-83
2022/05/04 02:28:21;;;;;;;11.82;4.60;;;;;;;9.77;75.91;100528.66;5072144;28;20049;-83
2022/05/04 02:30:48;;;;;;;6.90;3.33;;;;;;;9.72;76.27;100520.78;5059804;28;20039;-83
2022/05/04 02:33:15;;;;;;;9.57;3.60;;;;;;;9.68;75.97;100510.28;5068788;28;20170;-82
2022/05/04 02:38:40;;;;;;;5.68;3.63;;;;;;;9.67;76.09;100519.88;5078591;28;20106;-83
2022/05/04 02:41:06;;;;;;;6.45;3.85;;;;;;;9.82;75.97;100547.03;5074986;28;20126;-83
2022/05/04 02:43:49;;;;;;;6.07;3.85;;;;;;;10.01;75.60;100537.50;5077422;28;20475;-81
2022/05/04 02:46:20;;;;;;;6.07;3.33;;;;;;;10.00;75.22;100541.88;5064620;28;20115;-81
2022/05/04 02:48:58;;;;;;;6.65;3.83;;;;;;;9.85;75.96;100521.69;5072653;28;20045;-86
2022/05/04 02:51:24;;;;;;;6.72;3.28;;;;;;;9.84;75.59;100532.19;5066521;28;20040;-84
2022/05/04 02:53:51;;;;;;;9.60;4.10;;;;;;;9.83;75.72;100525.19;5070409;28;20027;-80
2022/05/04 02:56:17;;;;;;;10.63;3.50;;;;;;;9.67;75.99;100534.75;5077802;28;20036;-81
2022/05/04 02:58:43;;;;;;;8.10;4.78;;;;;;;9.81;76.22;100530.44;5077944;28;20090;-81
2022/05/04 03:04:04;;;;;;;8.50;3.90;;;;;;;9.80;75.95;100527.81;5064457;28;20126;-82
2022/05/04 03:06:30;;;;;;;4.80;2.90;;;;;;;9.80;76.29;100539.16;5070592;28;20045;-82
2022/05/04 03:08:56;;;;;;;8.68;4.45;;;;;;;9.88;75.86;100521.75;5083447;28;20052;-81
2022/05/04 03:14:07;;;;;;;10.25;3.55;;;;;;;10.13;75.75;100564.63;5066703;28;20078;-80
2022/05/04 03:16:52;;;;;;;5.25;3.25;;;;;;;10.06;75.71;100551.50;5070480;28;20020;-80
2022/05/04 03:19:22;;;;;;;4.35;3.17;;;;;;;9.93;76.35;100551.47;5079922;28;20108;-80
2022/05/04 03:21:48;;;;;;;6.78;3.85;;;;;;;9.93;76.12;100517.38;5071489;28;20043;-80
2022/05/04 03:24:21;;;;;;;4.88;3.47;;;;;;;10.02;76.53;100571.63;5071335;28;20036;-82
2022/05/04 03:27:28;;;;;;;5.30;3.50;;;;;;;9.96;76.72;100570.69;5080918;28;20070;-82
2022/05/04 03:36:54;;;;;;;6.32;4.07;;;;;;;9.67;75.67;100559.19;5059388;28;20139;-83
2022/05/04 03:40:04;;;;;;;6.50;3.97;;;;;;;9.56;76.32;100555.63;5060802;28;20181;-83
2022/05/04 03:42:30;;;;;;;12.82;4.30;;;;;;;9.71;76.12;100579.28;5074700;28;20483;-82
2022/05/04 03:44:56;;;;;;;6.93;3.58;;;;;;;10.09;76.79;100596.09;5062614;28;20052;-81
2022/05/04 03:47:22;;;;;;;8.02;4.05;;;;;;;10.20;75.49;100593.53;5042574;28;20109;-82
2022/05/04 03:49:48;;;;;;;8.45;3.92;;;;;;;9.40;76.85;100570.34;5063813;28;20456;-83
2022/05/04 03:52:14;;;;;;;6.97;4.20;;;;;;;9.70;76.43;100588.03;5047919;28;20049;-83
2022/05/04 03:54:40;;;;;;;7.20;4.75;;;;;;;10.05;76.26;100607.44;5046657;28;20452;-83
2022/05/04 03:57:07;;;;;;;8.23;4.43;;;;;;;10.03;75.69;100567.25;5055329;28;20083;-85
2022/05/04 03:59:33;;;;;;;5.75;4.50;;;;;;;10.13;75.63;100566.41;5045060;28;20051;-83
2022/05/04 04:02:28;;;;;;;5.68;4.07;;;;;;;10.28;75.24;100571.75;5044067;28;20052;-82
2022/05/04 04:04:54;;;;;;;8.45;4.03;;;;;;;10.29;76.42;100573.50;5045432;28;20024;-83
2022/05/04 04:07:19;;;;;;;8.05;3.83;;;;;;;10.48;75.02;100597.16;5049313;28;20833;-82
2022/05/04 04:10:02;;;;;;;6.45;4.82;;;;;;;10.43;76.01;100568.28;5048277;28;20045;-82
2022/05/04 04:12:29;;;;;;;9.50;5.28;;;;;;;10.40;74.17;100557.81;5056976;28;20096;-83
2022/05/04 04:14:54;;;;;;;10.63;4.88;;;;;;;10.87;74.49;100612.16;5048628;28;20039;-83
2022/05/04 04:17:21;;;;;;;7.03;4.70;;;;;;;10.59;73.43;100565.72;5044366;28;20033;-86
2022/05/04 04:21:50;;;;;;;6.55;4.25;;;;;;;10.85;72.69;100581.50;5052754;28;20014;-83
2022/05/04 04:22:32;;;;;;;12.05;4.40;;;;;;;10.93;73.06;100593.78;5040678;28;20043;-84
2022/05/04 04:24:59;;;;;;;7.75;4.10;;;;;;;10.89;73.00;100559.66;5052403;28;20036;-83
2022/05/04 04:27:25;;;;;;;6.57;3.95;;;;;;;11.22;71.92;100602.56;5050186;28;20029;-86
2022/05/04 04:29:52;;;;;;;7.15;4.25;;;;;;;10.94;72.08;100560.53;5052786;28;20095;-83
2022/05/04 04:32:19;;;;;;;10.70;4.53;;;;;;;11.15;71.33;100585.94;5035244;28;20063;-83
2022/05/04 04:34:45;;;;;;;7.90;5.07;;;;;;;11.34;71.63;100616.56;5049025;28;20059;-83
2022/05/04 04:37:13;;;;;;;8.10;4.75;;;;;;;11.33;71.18;100613.94;5046036;28;20627;-86
2022/05/04 04:39:39;;;;;;;10.05;4.57;;;;;;;11.24;71.98;100606.03;5054706;28;20504;-82
2022/05/04 04:42:05;;;;;;;8.57;4.78;;;;;;;10.91;72.62;100558.78;5036070;28;20108;-81
2022/05/04 04:44:32;;;;;;;5.85;4.53;;;;;;;11.33;72.43;100614.81;5066143;28;20079;-85
2022/05/04 04:46:59;;;;;;;6.18;4.53;;;;;;;11.03;72.32;100571.03;5087424;28;20051;-81
2022/05/04 04:49:26;;;;;;;6.15;4.40;;;;;;;11.23;71.82;100602.53;5081442;28;20020;-82
2022/05/04 04:51:55;;;;;;;7.07;5.63;;;;;;;10.90;72.08;100577.16;5046274;28;20036;-82
2022/05/04 04:54:22;;;;;;;10.05;4.45;;;;;;;11.13;71.83;100579.78;5073018;28;20039;-81
2022/05/04 04:56:48;;;;;;;6.35;4.38;;;;;;;11.29;72.22;100572.78;5070219;28;20109;-82
2022/05/04 04:59:13;;;;;;;6.97;4.60;;;;;;;11.45;71.63;100594.66;5072450;28;20177;-82
2022/05/04 05:01:52;;;;;;;9.52;5.00;;;;;;;11.29;72.68;100580.69;5079122;28;20024;-82
2022/05/04 05:04:20;;;;;;;8.05;4.28;;;;;;;11.36;71.48;100585.91;5052598;28;20483;-82
2022/05/04 05:06:46;;;;;;;9.10;6.10;;;;;;;11.08;71.58;100598.16;5087914;28;20044;-82
2022/05/04 05:09:11;;;;;;;8.63;5.88;;;;;;;11.54;71.80;100618.31;5068036;28;20059;-82
2022/05/04 05:11:37;;;;;;;18.90;5.30;;;;;;;11.32;71.66;100604.31;5069885;28;20044;-84
2022/05/04 05:17:08;;;;;;;;;;;;;;;11.66;70.88;100594.66;5084084;28;20158;-83
2022/05/04 05:19:34;;;;;;;11.77;5.25;;;;;;;11.99;70.33;100622.66;5078261;28;19919;-84
2022/05/04 05:22:00;;;;;;;7.70;5.25;;;;;;;12.02;69.88;100603.38;5074579;28;20024;-84
2022/05/04 05:24:27;;;;;;;13.80;6.15;;;;;;;11.88;69.08;100607.78;5064336;28;20040;-83
2022/05/04 05:26:53;;;;;;;12.98;5.90;;;;;;;12.20;69.66;100611.22;5093250;28;20040;-83
2022/05/04 05:29:18;;;;;;;9.90;6.20;;;;;;;12.66;68.29;100616.25;5062503;28;20051;-83
2022/05/04 05:31:44;;;;;;;9.43;6.40;;;;;;;12.74;67.51;100634.66;5064998;28;20550;-83
2022/05/04 05:34:10;;;;;;;11.50;6.90;;;;;;;13.03;66.23;100609.88;5063981;28;20412;-83
2022/05/04 05:39:59;;;;;;;22.38;6.15;;;;;;;13.58;66.49;100654.31;5077759;28;20040;-83
2022/05/04 05:42:28;;;;;;;8.10;5.68;;;;;;;13.37;65.70;100629.00;5062570;28;20436;-84
2022/05/04 05:44:56;;;;;;;9.68;5.95;;;;;;;13.66;65.31;100626.09;5073757;28;20155;-82
2022/05/04 05:50:45;;;;;;;7.47;5.22;;;;;;;13.66;64.46;100638.41;5076830;28;20044;-81
2022/05/04 05:53:14;;;;;;;10.73;5.72;;;;;;;13.63;65.66;100664.81;5068462;28;20135;-81
2022/05/04 05:59:03;;;;;;;15.43;5.82;;;;;;;13.81;65.77;100621.56;5074789;28;20047;-82
2022/05/04 06:01:50;;;;;;;19.65;5.78;;;;;;;13.09;66.77;100638.84;5082872;28;20035;-82
2022/05/04 06:04:16;;;;;;;14.93;6.75;;;;;;;13.38;64.68;100619.31;5067586;28;20036;-82
2022/05/04 06:06:43;;;;;;;9.25;5.93;;;;;;;14.06;65.89;100664.41;5047672;28;20044;-82
2022/05/04 06:09:09;;;;;;;11.57;5.97;;;;;;;14.02;66.39;100660.91;5068777;28;20047;-86
2022/05/04 06:11:35;;;;;;;10.18;6.68;;;;;;;14.06;65.34;100628.34;5073374;28;20115;-82
2022/05/04 06:14:22;;;;;;;8.70;6.55;;;;;;;13.77;65.09;100665.56;5063767;28;20111;-84
2022/05/04 06:17:05;;;;;;;11.13;6.55;;;;;;;13.67;67.14;100663.88;5089602;28;20478;-82
2022/05/04 06:19:31;;;;;;;12.40;7.38;;;;;;;13.91;66.85;100663.69;5081507;28;20075;-83
2022/05/04 06:21:58;;;;;;;11.48;7.63;;;;;;;14.07;63.12;100635.38;5071454;28;20065;-83
2022/05/04 06:24:27;;;;;;;11.15;6.28;;;;;;;14.24;63.13;100639.59;5079025;28;20119;-83
2022/05/04 06:26:56;;;;;;;8.38;6.70;;;;;;;14.39;63.88;100671.09;5090532;28;20040;-83
2022/05/04 06:35:05;;;;;;;11.05;8.38;;;;;;;14.22;62.86;100650.16;5094411;28;20058;-82
2022/05/04 06:37:54;;;;;;;15.07;7.28;;;;;;;14.17;64.26;100659.03;5094968;28;20024;-82
2022/05/04 06:40:21;;;;;;;11.23;6.93;;;;;;;13.61;66.17;100654.28;5074506;28;20051;-82
2022/05/04 06:42:54;;;;;;;12.18;7.55;;;;;;;14.05;65.37;100678.50;5095700;28;20047;-82
2022/05/04 06:45:20;;;;;;;11.70;7.13;;;;;;;13.71;64.71;100658.56;5080927;28;22952;-83
2022/05/04 06:47:54;;;;;;;9.80;6.60;;;;;;;14.05;63.26;100683.78;5063640;28;20371;-83
2022/05/04 06:50:22;;;;;;;12.43;6.57;;;;;;;14.14;65.60;100678.38;5084393;28;20076;-83
2022/05/04 06:52:48;;;;;;;11.65;6.97;;;;;;;14.65;64.02;100685.78;5083830;28;20032;-82
2022/05/04 06:55:13;;;;;;;15.82;7.25;;;;;;;14.68;64.80;100704.22;5074712;28;20048;-83
2022/05/04 06:57:41;;;;;;;10.15;7.18;;;;;;;14.70;62.45;100652.25;5083541;28;20460;-83
2022/05/04 07:00:08;;;;;;;9.02;6.70;;;;;;;14.64;64.13;100669.06;5080860;28;20046;-83
2022/05/04 07:02:56;;;;;;;11.68;6.53;;;;;;;14.63;62.84;100688.41;5092057;28;20035;-83
2022/05/04 07:05:23;;;;;;;15.02;7.57;;;;;;;14.94;62.11;100686.28;5076896;28;20043;-86
2022/05/04 07:07:49;;;;;;;19.80;7.90;;;;;;;14.60;62.49;100655.91;5059275;28;20028;-81
2022/05/04 07:10:15;;;;;;;15.68;8.05;;;;;;;14.20;63.65;100678.34;5048362;28;20677;-82
2022/05/04 07:12:41;;;;;;;10.40;6.55;;;;;;;14.62;62.51;100691.97;5075287;28;20130;-83
2022/05/04 07:15:10;;;;;;;20.38;7.13;;;;;;;14.76;61.85;100655.69;5070457;28;20055;-83
2022/05/04 07:17:36;;;;;;;13.63;7.15;;;;;;;14.60;63.50;100650.63;5080447;28;20040;-83
2022/05/04 07:20:21;;;;;;;9.32;7.22;;;;;;;14.35;60.88;100664.06;5073272;28;20031;-84
2022/05/04 07:22:50;;;;;;;10.68;7.45;;;;;;;14.44;61.64;100653.41;5058257;28;20043;-83
2022/05/04 07:25:16;;;;;;;13.10;9.23;;;;;;;14.46;62.41;100693.00;5059637;28;20141;-83
2022/05/04 07:27:42;;;;;;;14.13;8.70;;;;;;;14.44;61.39;100661.34;5071472;28;20052;-83
2022/05/04 07:30:14;;;;;;;11.88;8.10;;;;;;;14.85;61.29;100649.41;5079064;28;20040;-83
2022/05/04 07:32:41;;;;;;;13.50;7.88;;;;;;;15.15;59.79;100641.94;5068916;28;21217;-83
2022/05/04 07:35:13;;;;;;;17.10;7.72;;;;;;;15.26;59.80;100640.00;5062798;28;20471;-83
2022/05/04 07:37:41;;;;;;;10.48;7.55;;;;;;;15.36;58.92;100649.53;5073175;28;20043;-82
2022/05/04 07:42:58;;;;;;;11.98;8.32;;;;;;;14.83;61.49;100651.19;5068771;28;20042;-82
2022/05/04 07:45:23;;;;;;;11.18;8.20;;;;;;;15.05;61.37;100701.97;5070112;28;20055;-84
2022/05/04 07:47:58;;;;;;;18.83;8.00;;;;;;;14.95;61.07;100682.72;5090355;28;20051;-82
2022/05/04 07:50:25;;;;;;;17.17;8.73;;;;;;;15.39;60.79;100718.22;5087324;28;20071;-83
2022/05/04 07:52:53;;;;;;;14.73;9.32;;;;;;;15.19;58.92;100660.38;5087610;28;20047;-81
2022/05/04 07:55:18;;;;;;;15.48;9.40;;;;;;;15.69;59.00;100704.56;5084666;28;20036;-84
2022/05/04 07:57:47;;;;;;;13.95;9.02;;;;;;;15.51;60.73;100719.81;5064820;28;20098;-85
2022/05/04 08:06:00;;;;;;;16.75;9.23;;;;;;;15.85;60.77;100705.19;5087015;28;20059;-81
2022/05/04 08:08:52;;;;;;;21.02;7.78;;;;;;;15.51;60.58;100659.00;5051894;28;20391;-83
2022/05/04 08:11:20;;;;;;;11.50;7.78;;;;;;;15.96;60.97;100714.69;5063534;28;20033;-84
2022/05/04 08:13:46;;;;;;;18.77;7.75;;;;;;;15.99;59.98;100697.88;5076827;28;20023;-83
2022/05/04 08:16:13;;;;;;;21.67;9.00;;;;;;;15.47;60.79;100704.03;5083358;28;20071;-82
2022/05/04 08:18:50;;;;;;;15.23;9.50;;;;;;;15.43;59.81;100668.84;5091817;28;20051;-82
2022/05/04 08:21:19;;;;;;;21.63;9.25;;;;;;;15.65;58.29;100668.47;5068865;28;20040;-83
2022/05/04 08:23:44;;;;;;;11.15;8.98;;;;;;;15.72;59.10;100675.44;5079398;28;20059;-82
2022/05/04 08:26:12;;;;;;;12.43;9.40;;;;;;;16.08;59.71;100673.03;5081012;28;20081;-84
2022/05/04 08:28:52;;;;;;;14.68;8.93;;;;;;;16.59;59.58;100689.69;5064084;28;20375;-83
2022/05/04 08:31:24;;;;;;;13.20;8.15;;;;;;;16.66;58.25;100685.13;5074284;28;20032;-81
2022/05/04 08:33:51;;;;;;;11.10;8.40;;;;;;;17.05;55.74;100669.31;5078982;28;20040;-87
2022/05/04 08:36:17;;;;;;;14.15;7.68;;;;;;;16.86;56.98;100667.06;5068480;28;20029;-82
2022/05/04 08:38:43;;;;;;;14.88;9.20;;;;;;;17.68;53.63;100689.91;5069304;28;20116;-83
2022/05/04 08:41:09;;;;;;;10.80;7.38;;;;;;;17.52;52.93;100678.81;5081098;28;20044;-82
2022/05/04 08:43:55;;;;;;;13.90;9.45;;;;;;;17.72;53.82;100662.41;5075092;28;20016;-82
2022/05/04 08:46:24;;;;;;;12.55;6.00;;;;;;;17.57;50.22;100688.44;5056232;28;20496;-81
2022/05/04 08:48:52;;;;;;;14.77;6.13;;;;;;;17.67;50.21;100681.97;5039803;28;20045;-86
2022/05/04 08:51:20;;;;;;;11.32;6.53;;;;;;;18.60;49.21;100689.25;5050987;28;20041;-83
2022/05/04 08:53:49;;;;;;;10.95;5.63;;;;;;;17.39;51.24;100695.91;5050840;28;20090;-82
2022/05/04 08:56:14;;;;;;;14.68;5.85;;;;;;;17.05;50.94;100688.75;5053674;28;20025;-81
2022/05/04 08:58:40;;;;;;;13.55;6.13;;;;;;;17.45;51.92;100706.41;5064182;28;20498;-82
2022/05/04 09:01:27;;;;;;;12.70;5.72;;;;;;;17.50;52.67;100691.22;5037198;28;20064;-83
2022/05/04 09:03:59;;;;;;;10.57;6.55;;;;;;;18.18;50.59;100697.50;5050026;28;20048;-83
2022/05/04 09:06:32;;;;;;;16.65;6.00;;;;;;;17.84;51.62;100721.41;5052695;28;20083;-82
2022/05/04 09:09:12;;;;;;;10.80;6.38;;;;;;;18.74;51.52;100731.41;5055294;28;20056;-81
2022/05/04 09:15:36;;;;;;;14.50;6.30;;;;;;;18.27;50.33;100685.78;5059039;28;20116;-82
2022/05/04 09:18:25;;;;;;;19.90;5.35;;;;;;;18.75;49.95;100686.19;5054776;28;21117;-81
2022/05/04 09:21:04;;;;;;;8.38;6.60;;;;;;;18.70;49.92;100692.53;5053455;28;20120;-82
2022/05/04 09:23:32;;;;;;;8.50;4.88;;;;;;;18.88;49.88;100684.03;5040498;28;20421;-85
2022/05/04 09:26:05;;;;;;;9.80;5.45;;;;;;;18.47;50.85;100666.59;5029155;28;20024;-87
2022/05/04 09:28:33;;;;;;;8.82;5.10;;;;;;;18.97;48.36;100669.59;5066253;28;20111;-82
2022/05/04 09:31:04;;;;;;;12.18;5.35;;;;;;;18.73;50.08;100681.78;5034764;28;20045;-81
2022/05/04 09:33:33;;;;;;;11.80;5.30;;;;;;;19.82;50.82;100692.59;5057570;28;20037;-83
2022/05/04 09:36:02;;;;;;;9.15;4.78;;;;;;;18.97;48.58;100669.59;5052172;28;20073;-82
2022/05/04 09:47:01;;;;;;;28.98;6.25;;;;;;;19.78;46.86;100661.69;5068269;28;20105;-82
2022/05/04 09:50:01;;;;;;;9.40;6.57;;;;;;;21.36;47.80;100651.38;5068507;28;20386;-81
2022/05/04 09:52:56;;;;;;;10.63;5.85;;;;;;;21.99;46.08;100679.03;5061186;28;20037;-82
2022/05/04 09:55:24;;;;;;;12.70;6.47;;;;;;;21.87;45.75;100666.19;5061864;28;20049;-81
2022/05/04 09:57:53;;;;;;;9.68;6.88;;;;;;;20.91;46.38;100653.16;5080556;28;20048;-81
2022/05/04 10:00:27;;;;;;;11.80;6.75;;;;;;;21.81;44.07;100645.06;5070019;28;20040;-82
2022/05/04 10:02:56;;;;;;;9.85;7.18;;;;;;;21.60;43.72;100660.22;5053498;28;20119;-88
2022/05/04 10:05:24;;;;;;;15.75;7.43;;;;;;;21.95;43.73;100618.63;5062884;28;20040;-84
2022/05/04 10:07:54;;;;;;;10.77;7.70;;;;;;;22.44;43.56;100618.25;5073489;28;20029;-82
2022/05/04 10:10:40;;;;;;;14.35;5.63;;;;;;;22.22;39.21;100605.00;5068916;28;20460;-81
2022/05/04 10:13:09;;;;;;;9.85;6.20;;;;;;;21.68;39.85;100604.66;5045284;28;20028;-79
2022/05/04 10:15:41;;;;;;;8.77;6.03;;;;;;;22.06;39.87;100620.84;5074154;28;20055;-81
2022/05/04 10:18:13;;;;;;;9.43;5.50;;;;;;;21.05;41.90;100628.63;5064075;28;20372;-81
2022/05/04 10:21:01;;;;;;;11.93;7.60;;;;;;;22.00;43.39;100621.97;5058362;28;20109;-80
2022/05/04 10:23:32;;;;;;;7.40;4.20;;;;;;;21.68;39.15;100608.22;5072936;28;20040;-82
2022/05/04 10:25:59;;;;;;;7.43;5.38;;;;;;;21.38;40.87;100613.00;5075233;28;20371;-84
2022/05/04 10:28:25;;;;;;;16.50;7.57;;;;;;;21.15;41.93;100623.78;5067638;28;20064;-85
2022/05/04 10:30:59;;;;;;;11.32;6.05;;;;;;;22.20;38.88;100637.13;5065794;28;20097;-82
2022/05/04 10:33:34;;;;;;;14.75;8.70;;;;;;;22.00;36.55;100610.41;5058008;28;20075;-81
2022/05/04 10:36:27;;;;;;;16.45;8.90;;;;;;;21.65;37.83;100608.31;5063991;28;20123;-81
2022/05/04 10:39:04;;;;;;;;;;;;;;;22.76;36.92;100633.69;5066714;28;20032;-82
2022/05/04 10:41:38;;;;;;;35.10;15.20;;;;;;;23.49;36.63;100652.50;5069951;28;19987;-81
2022/05/04 10:44:09;;;;;;;39.05;15.30;;;;;;;23.24;33.72;100652.84;5068247;28;20108;-82
2022/05/04 10:46:47;;;;;;;35.95;14.23;;;;;;;22.99;31.76;100613.00;5063711;28;20080;-81
2022/05/04 10:49:41;;;;;;;45.58;17.17;;;;;;;22.21;33.54;100619.31;5073347;28;20032;-81
2022/05/04 10:52:51;;;;;;;30.48;13.98;;;;;;;21.86;34.00;100638.59;5071114;28;20036;-81
2022/05/04 10:55:38;;;;;;;16.33;9.55;;;;;;;20.50;36.27;100601.38;5067389;28;20049;-80
2022/05/04 10:58:33;;;;;;;29.38;13.27;;;;;;;22.31;35.78;100652.69;5075137;28;20080;-80
2022/05/04 11:01:31;;;;;;;30.75;14.05;;;;;;;22.46;36.10;100649.34;5047758;28;20135;-82
2022/05/04 11:04:14;;;;;;;32.15;15.25;;;;;;;22.20;37.32;100652.31;5073566;28;20445;-83
2022/05/04 11:06:55;;;;;;;15.73;8.02;;;;;;;21.76;36.42;100615.03;5076734;28;20044;-81
2022/05/04 11:09:31;;;;;;;27.15;12.23;;;;;;;21.68;37.59;100650.94;5074690;28;20047;-81
2022/05/04 11:12:03;;;;;;;20.20;9.32;;;;;;;20.28;39.11;100620.84;5064564;28;20097;-80
2022/05/04 11:14:34;;;;;;;14.55;6.63;;;;;;;21.13;38.15;100614.94;5070957;28;20028;-79
2022/05/04 11:17:01;;;;;;;15.30;7.43;;;;;;;21.45;37.41;100656.38;5060217;28;20020;-82
2022/05/04 11:19:33;;;;;;;12.55;6.80;;;;;;;21.02;36.14;100618.91;5076496;28;20032;-84
2022/05/04 11:22:00;;;;;;;15.40;6.03;;;;;;;21.14;35.57;100614.00;5081158;28;20063;-86
2022/05/04 11:24:27;;;;;;;18.67;7.65;;;;;;;22.37;35.27;100649.75;5053941;28;20048;-82
2022/05/04 11:26:55;;;;;;;14.30;7.05;;;;;;;22.25;35.97;100619.09;5055800;28;20043;-81
2022/05/04 11:29:25;;;;;;;20.15;6.30;;;;;;;21.12;35.60;100613.19;5055626;28;20033;-85
2022/05/04 11:32:01;;;;;;;11.05;4.68;;;;;;;21.72;35.78;100600.91;5063733;28;20032;-88
2022/05/04 11:34:56;;;;;;;9.45;5.57;;;;;;;21.39;36.93;100649.44;5075352;28;20494;-81
2022/05/04 11:37:24;;;;;;;12.57;6.10;;;;;;;22.38;37.68;100640.78;5067665;28;20040;-88
2022/05/04 11:39:50;;;;;;;13.35;7.68;;;;;;;22.26;35.85;100619.97;5056244;28;20392;-79
2022/05/04 11:42:16;;;;;;;13.68;7.47;;;;;;;21.82;34.57;100607.63;5072561;28;20040;-80
2022/05/04 11:44:47;;;;;;;21.85;7.53;;;;;;;21.65;34.44;100637.69;5064522;28;20071;-82
2022/05/04 11:47:16;;;;;;;23.90;10.02;;;;;;;21.10;33.65;100612.41;5075732;28;20036;-80
2022/05/04 11:49:41;;;;;;;24.77;12.68;;;;;;;21.74;33.07;100635.59;5066126;28;20480;-80
2022/05/04 11:52:08;;;;;;;25.73;10.98;;;;;;;20.85;34.11;100622.25;5073098;28;20035;-80
2022/05/04 11:54:34;;;;;;;33.30;14.10;;;;;;;21.08;35.08;100612.47;5057779;28;20099;-80
2022/05/04 11:57:11;;;;;;;32.05;13.95;;;;;;;21.23;33.47;100593.16;5070416;28;20068;-81
2022/05/04 11:59:37;;;;;;;15.02;8.43;;;;;;;21.73;35.38;100597.34;5087666;28;20032;-80
2022/05/04 12:02:22;;;;;;;9.88;4.85;;;;;;;20.67;35.07;100622.97;5078201;28;20035;-81
2022/05/04 12:04:47;;;;;;;12.07;4.55;;;;;;;20.34;35.84;100587.75;5084979;28;20032;-80
2022/05/04 12:07:13;;;;;;;8.13;4.07;;;;;;;20.03;35.78;100618.19;5076392;28;20047;-80
2022/05/04 12:09:39;;;;;;;8.43;2.95;;;;;;;20.32;36.36;100614.50;5064041;28;20044;-81
2022/05/04 12:12:05;;;;;;;7.40;4.18;;;;;;;21.39;33.69;100619.22;5081186;28;20040;-81
2022/05/04 12:14:32;;;;;;;10.10;5.28;;;;;;;21.85;34.25;100634.19;5088767;28;20032;-80
2022/05/04 12:16:58;;;;;;;8.32;3.88;;;;;;;20.70;33.56;100632.63;5061061;28;20032;-85
2022/05/04 12:19:29;;;;;;;12.80;4.25;;;;;;;20.83;33.65;100621.44;5078607;28;20031;-90
2022/05/04 12:22:04;;;;;;;9.15;3.88;;;;;;;21.20;34.78;100633.31;5075558;28;20372;-81
2022/05/04 12:24:54;;;;;;;11.15;5.40;;;;;;;21.07;34.17;100598.28;5069264;28;20029;-82
2022/05/04 12:27:31;;;;;;;7.60;4.13;;;;;;;20.58;35.00;100600.22;5091158;28;20040;-81
2022/05/04 12:35:30;;;;;;;10.60;3.97;;;;;;;21.42;34.72;100601.31;5069250;28;20046;-82
2022/05/04 12:37:58;;;;;;;5.55;3.17;;;;;;;21.87;35.85;100629.66;5071845;28;20403;-83
2022/05/04 12:40:29;;;;;;;16.75;5.13;;;;;;;21.39;34.71;100589.84;5064830;28;20167;-80
2022/05/04 12:42:59;;;;;;;7.30;3.92;;;;;;;20.77;36.33;100596.81;5082730;28;20036;-81